• Join FlightAware (Why Join?)
  • Login
  • US Flag 
07:00PM EDT


 

Airport Tracker/Info


-or-


 

Live Flight TrackerFlight Track Log ✈ AWE3417 ✈ 09-Apr-2013 ✈ KMHT - KDCA

Flight Track Log - Related Links

Times and Time Zones

All times are in EDT time to prevent confusion due to time zone crossing. See the AWE3417 flight status page for this flight to view local times or setup timezone preferences in your user account.

Time Position Orientation Groundspeed Altitude Reporting Facility
EDT Latitude Longitude Course Direction KTS MPH feet Rate Location/Type
05:08PM 42.9500 -71.4333 144° Southeast 149 171 1,200  Level KA90
05:09PM 42.9650 -71.4528 317° Northwest 158 182 2,400 1,740 Climbing Boston Center
05:10PM 43.0111 -71.4689 346° North 178 205 4,400 2,220 Climbing Boston Center
05:11PM 43.0517 -71.0949 65° Northeast  Level FlightAware Approximate
05:11PM 43.0433 -71.3633 67° East 206 237 7,400  Level Boston Center
05:12PM 43.0777 -70.9749 132° Southeast  Level FlightAware Approximate
05:12PM 43.0506 -71.2411 85° East 285 328 10,400  Level Boston Center
05:13PM 43.0059 -70.8892 144° Southeast  Level FlightAware Approximate
05:13PM 43.0617 -71.1186 83° East 341 392 12,500  Level Boston Center
05:14PM 43.0597 -70.9653 91° East 372 428 15,600 2,700 Climbing Boston Center
05:15PM 42.9778 -70.9019 151° Southeast 340 391 18,000 2,280 Climbing Boston Center
05:16PM 42.8883 -70.9242 190° South 292 336 20,100 2,160 Climbing Boston Center
05:17PM 42.7933 -70.9772 202° Southwest 324 373 22,300 1,980 Climbing Boston Center
05:18PM 42.6897 -71.0278 200° South 364 419 24,200 1,740 Climbing Boston Center
05:19PM 42.6011 -71.1089 214° Southwest 386 444 25,900 1,860 Climbing Boston Center
05:20PM 42.5544 -71.2339 243° Southwest 365 420 28,000 1,980 Climbing Boston Center
05:21PM 42.5036 -71.3586 241° Southwest 370 426 29,800 1,620 Climbing Boston Center
05:22PM 42.4547 -71.4806 242° Southwest 370 426 31,300 1,080 Climbing Boston Center
05:23PM 42.3953 -71.6136 239° Southwest 377 434 32,000 300 Climbing Boston Center
05:24PM 42.3461 -71.7267 240° Southwest 372 428 32,000  Level Boston Center
05:25PM 42.2989 -71.8422 241° Southwest 365 420 32,000  Level Boston Center
05:26PM 42.2494 -71.9606 241° Southwest 360 414 32,000  Level Boston Center
05:27PM 42.1894 -72.0786 236° Southwest 365 420 32,000  Level Boston Center
05:28PM 42.1250 -72.1908 232° Southwest 379 436 32,000  Level Boston Center
05:29PM 42.0564 -72.3031 231° Southwest 385 443 32,000  Level Boston Center
05:30PM 41.9897 -72.4150 231° Southwest 391 450 32,000  Level Boston Center
05:31PM 41.9211 -72.5267 230° Southwest 397 457 32,000  Level Boston Center
05:32PM 41.8564 -72.6381 232° Southwest 397 457 32,000  Level Boston Center
05:33PM 41.7853 -72.7575 231° Southwest 391 450 32,000  Level Boston Center
05:34PM 41.7181 -72.8656 230° Southwest 402 463 32,000  Level Boston Center
05:35PM 41.6508 -72.9792 232° Southwest 396 456 32,000  Level Boston Center
05:36PM 41.5836 -73.0894 231° Southwest 396 456 32,000  Level Boston Center
05:37PM 41.5225 -73.1914 231° Southwest 396 456 32,000  Level Boston Center
05:38PM 41.4550 -73.3014 231° Southwest 396 456 32,000  Level Boston Center
05:39PM 41.3875 -73.4139 231° Southwest 396 456 32,000  Level Boston Center
05:41PM 41.2647 -73.6142 231° Southwest 414 476 32,000  Level New York Center
05:42PM 41.1975 -73.7244 231° Southwest 408 470 32,000  Level New York Center
05:43PM 41.1322 -73.8372 232° Southwest 403 464 32,000  Level New York Center
05:44PM 41.0647 -73.9497 232° Southwest 403 464 32,000  Level New York Center
05:45PM 40.9972 -74.0592 231° Southwest 403 464 32,000 -120 Level New York Center
05:46PM 40.9314 -74.1742 233° Southwest 398 458 31,800 -1,080 Descending New York Center
05:47PM 40.8594 -74.2831 229° Southwest 398 458 29,900 -1,980 Descending New York Center
05:48PM 40.7933 -74.3975 233° Southwest 398 458 28,000 -960 Descending New York Center
05:49PM 40.7314 -74.5119 234° Southwest 398 458 28,000 -60 Level New York Center
05:50PM 40.6986 -74.6306 250° West 387 445 27,900 -660 Descending New York Center
05:51PM 40.6631 -74.7569 250° West 382 440 26,700 -1,200 Descending New York Center
05:52PM 40.6256 -74.8806 248° West 377 434 25,500 -1,260 Descending New York Center
05:53PM 40.5922 -74.9989 250° West 364 419 24,300 -1,260 Descending New York Center
05:54PM 40.5161 -75.0869 221° Southwest 351 404 23,100 -1,140 Descending New York Center
05:55PM 40.4339 -75.1692 217° Southwest 363 418 22,000 -600 Descending New York Center
05:56PM 40.3558 -75.2458 217° Southwest 363 418 22,000  Level New York Center
05:57PM 40.2758 -75.3250 217° Southwest 363 418 22,000  Level New York Center
05:58PM 40.2036 -75.4128 223° Southwest 363 418 22,000  Level New York Center
05:59PM 40.1353 -75.5058 226° Southwest 363 418 22,000  Level New York Center
06:00PM 40.0647 -75.5989 225° Southwest 363 418 22,000  Level New York Center
06:01PM 39.9983 -75.6917 227° Southwest 363 418 22,000  Level New York Center
06:02PM 39.9275 -75.7869 226° Southwest 358 412 22,000  Level New York Center
06:03PM 39.8611 -75.8769 226° Southwest 358 412 22,000 -420 Level New York Center
06:04PM 39.7883 -75.9689 224° Southwest 358 412 21,200 -1,500 Descending New York Center
06:05PM 39.7153 -76.0658 226° Southwest 358 412 19,000 -2,040 Descending New York Center
06:05PM 39.6683 -76.1289 226° Southwest 343 395 17,800 -1,860 Descending FAA TRACON SMA TRACON (SMA)
06:06PM 39.6469 -76.1561 224° Southwest 339 390 17,200 -1,080 Descending FAA TRACON SMA TRACON (SMA)
06:06PM 39.6428 -76.1639 235° Southwest 338 389 17,100 -180 Descending FAA TRACON SMA TRACON (SMA)
06:06PM 39.6428 -76.1639 159° South 338 389 17,100 -2,280 Level FAA TRACON SMA TRACON (SMA)
06:07PM 39.5833 -76.2500 228° Southwest 319 367 15,500 -2,400 Descending Potomac TRACON
06:08PM 39.5167 -76.3333 224° Southwest 316 364 13,800 -1,680 Descending Potomac TRACON
06:09PM 39.4667 -76.4000 226° Southwest 307 353 12,300 -960 Descending Potomac TRACON
06:10PM 39.4000 -76.4667 218° Southwest 304 350 12,000 -180 Descending Potomac TRACON
06:11PM 39.3167 -76.5333 212° Southwest 306 352 12,000 -120 Level Potomac TRACON
06:12PM 39.2500 -76.5833 210° Southwest 306 352 11,800 -960 Descending Potomac TRACON
06:13PM 39.1833 -76.6500 218° Southwest 294 338 10,200 -900 Descending Potomac TRACON
06:14PM 39.1333 -76.7167 226° Southwest 273 314 10,000 -600 Descending Potomac TRACON
06:15PM 39.0833 -76.8000 232° Southwest 265 305 9,000 -1,440 Descending Potomac TRACON
06:16PM 39.0833 -76.8833 270° West 271 312 7,300 -1,320 Descending Potomac TRACON
06:17PM 39.0667 -76.9833 258° West 262 302 6,400 -1,260 Descending Potomac TRACON
06:18PM 39.0500 -77.0667 256° West 261 300 4,800 -1,740 Descending Potomac TRACON
06:19PM 39.0000 -77.1333 226° Southwest 250 288 3,100 -1,020 Descending Potomac TRACON
06:20PM 38.9500 -77.1500 195° South 223 257 2,900 -240 Descending Potomac TRACON